YKTN weather

Kyneton Airport
Kyneton, Victoria, Australia

Public forecast

Using degrees Celsius for public forecast. Weather courtesy of forecast.io.

Closest aviation weather report (METAR) to Kyneton Airport

Closest report is Melbourne International Airport, 32.8 nm (60.8 km) SE. Retrieved 2020/03/31 06:00 UTC (8 minutes ago):

YMML 310600Z 15007KT 9999 FEW045 21/10 Q1016 NOSIG

Closest aviation forecast (TAF) to Kyneton Airport

Closest forecast is Melbourne International Airport, 32.8 nm (60.8 km) SE. Retrieved 2020/03/31 06:03 UTC (5 minutes ago):

TAF YMML 310434Z 3106/0112 16008KT 9999 SCT045 FM311200 35006KT CAVOK FM010300 17010KT CAVOK FM011000 VRB05KT CAVOK